sensor_id;sensor_type;location;lat;lon;timestamp;P1;durP1;ratioP1;P2;durP2;ratioP2
79361;SDS011;68830;47.566;19.012;2023-07-29T00:02:17;10.90;;;5.00;;
79361;SDS011;68830;47.566;19.012;2023-07-29T00:05:19;7.47;;;5.75;;
79361;SDS011;68830;47.566;19.012;2023-07-29T00:08:24;10.50;;;6.00;;
79361;SDS011;68830;47.566;19.012;2023-07-29T00:11:26;9.05;;;5.50;;
79361;SDS011;68830;47.566;19.012;2023-07-29T00:14:28;7.38;;;6.15;;
79361;SDS011;68830;47.566;19.012;2023-07-29T00:17:30;6.75;;;6.05;;
79361;SDS011;68830;47.566;19.012;2023-07-29T00:20:32;9.95;;;4.88;;
79361;SDS011;68830;47.566;19.012;2023-07-29T00:23:37;12.05;;;6.03;;
79361;SDS011;68830;47.566;19.012;2023-07-29T00:26:39;5.35;;;4.85;;
79361;SDS011;68830;47.566;19.012;2023-07-29T00:29:41;7.97;;;5.45;;
79361;SDS011;68830;47.566;19.012;2023-07-29T00:32:43;11.57;;;5.22;;
79361;SDS011;68830;47.566;19.012;2023-07-29T00:35:45;7.05;;;5.32;;
79361;SDS011;68830;47.566;19.012;2023-07-29T00:38:50;9.98;;;5.43;;
79361;SDS011;68830;47.566;19.012;2023-07-29T00:41:52;7.97;;;5.30;;
79361;SDS011;68830;47.566;19.012;2023-07-29T00:44:54;9.68;;;5.40;;
79361;SDS011;68830;47.566;19.012;2023-07-29T00:47:56;8.43;;;5.10;;
79361;SDS011;68830;47.566;19.012;2023-07-29T00:50:59;9.63;;;5.65;;
79361;SDS011;68830;47.566;19.012;2023-07-29T00:54:03;6.68;;;4.45;;
79361;SDS011;68830;47.566;19.012;2023-07-29T00:57:05;5.70;;;4.78;;
79361;SDS011;68830;47.566;19.012;2023-07-29T01:00:10;9.40;;;5.03;;
79361;SDS011;68830;47.566;19.012;2023-07-29T01:03:14;7.78;;;5.03;;
79361;SDS011;68830;47.566;19.012;2023-07-29T01:06:18;5.82;;;4.82;;
79361;SDS011;68830;47.566;19.012;2023-07-29T01:09:29;7.22;;;4.65;;
79361;SDS011;68830;47.566;19.012;2023-07-29T01:12:41;7.07;;;4.53;;
79361;SDS011;68830;47.566;19.012;2023-07-29T01:15:48;5.50;;;4.43;;
79361;SDS011;68830;47.566;19.012;2023-07-29T01:18:56;4.72;;;4.18;;
79361;SDS011;68830;47.566;19.012;2023-07-29T01:22:06;7.20;;;4.35;;
79361;SDS011;68830;47.566;19.012;2023-07-29T01:25:11;6.28;;;4.68;;
79361;SDS011;68830;47.566;19.012;2023-07-29T01:28:13;7.72;;;4.15;;
79361;SDS011;68830;47.566;19.012;2023-07-29T01:31:16;7.43;;;4.40;;
79361;SDS011;68830;47.566;19.012;2023-07-29T01:34:29;6.57;;;4.65;;
79361;SDS011;68830;47.566;19.012;2023-07-29T01:37:37;4.72;;;3.65;;
79361;SDS011;68830;47.566;19.012;2023-07-29T01:40:43;7.60;;;4.03;;
79361;SDS011;68830;47.566;19.012;2023-07-29T01:43:45;8.77;;;4.07;;
79361;SDS011;68830;47.566;19.012;2023-07-29T01:46:48;6.50;;;5.20;;
79361;SDS011;68830;47.566;19.012;2023-07-29T01:49:51;7.07;;;4.10;;
79361;SDS011;68830;47.566;19.012;2023-07-29T01:52:53;6.65;;;4.82;;
79361;SDS011;68830;47.566;19.012;2023-07-29T01:55:57;7.60;;;4.60;;
79361;SDS011;68830;47.566;19.012;2023-07-29T01:58:59;8.05;;;4.13;;
79361;SDS011;68830;47.566;19.012;2023-07-29T02:02:01;5.18;;;3.60;;
79361;SDS011;68830;47.566;19.012;2023-07-29T02:05:03;10.43;;;4.63;;
79361;SDS011;68830;47.566;19.012;2023-07-29T02:08:05;7.65;;;4.32;;
79361;SDS011;68830;47.566;19.012;2023-07-29T02:11:09;5.50;;;3.85;;
79361;SDS011;68830;47.566;19.012;2023-07-29T02:14:11;7.25;;;4.60;;
79361;SDS011;68830;47.566;19.012;2023-07-29T02:17:13;5.35;;;3.80;;
79361;SDS011;68830;47.566;19.012;2023-07-29T02:20:15;6.47;;;4.38;;
79361;SDS011;68830;47.566;19.012;2023-07-29T02:23:17;5.82;;;3.50;;
79361;SDS011;68830;47.566;19.012;2023-07-29T02:26:21;9.18;;;4.68;;
79361;SDS011;68830;47.566;19.012;2023-07-29T02:29:23;6.00;;;4.05;;
79361;SDS011;68830;47.566;19.012;2023-07-29T02:32:26;12.10;;;5.38;;
79361;SDS011;68830;47.566;19.012;2023-07-29T02:35:29;7.10;;;4.32;;
79361;SDS011;68830;47.566;19.012;2023-07-29T02:38:31;4.30;;;3.53;;
79361;SDS011;68830;47.566;19.012;2023-07-29T02:41:34;5.32;;;4.38;;
79361;SDS011;68830;47.566;19.012;2023-07-29T02:44:36;5.63;;;3.63;;
79361;SDS011;68830;47.566;19.012;2023-07-29T02:47:38;11.82;;;4.95;;
79361;SDS011;68830;47.566;19.012;2023-07-29T02:50:40;4.97;;;4.18;;
79361;SDS011;68830;47.566;19.012;2023-07-29T02:53:42;9.30;;;4.97;;
79361;SDS011;68830;47.566;19.012;2023-07-29T02:56:46;5.10;;;4.40;;
79361;SDS011;68830;47.566;19.012;2023-07-29T02:59:50;4.60;;;3.83;;
79361;SDS011;68830;47.566;19.012;2023-07-29T03:02:52;6.28;;;3.70;;
79361;SDS011;68830;47.566;19.012;2023-07-29T03:05:57;6.38;;;4.18;;
79361;SDS011;68830;47.566;19.012;2023-07-29T03:09:00;8.23;;;3.75;;
79361;SDS011;68830;47.566;19.012;2023-07-29T03:12:03;5.80;;;3.70;;
79361;SDS011;68830;47.566;19.012;2023-07-29T03:15:06;8.48;;;4.68;;
79361;SDS011;68830;47.566;19.012;2023-07-29T03:18:09;6.93;;;3.65;;
79361;SDS011;68830;47.566;19.012;2023-07-29T03:21:11;5.45;;;3.40;;
79361;SDS011;68830;47.566;19.012;2023-07-29T03:24:13;4.80;;;3.40;;
79361;SDS011;68830;47.566;19.012;2023-07-29T03:27:16;7.15;;;4.97;;
79361;SDS011;68830;47.566;19.012;2023-07-29T03:30:19;11.48;;;4.47;;
79361;SDS011;68830;47.566;19.012;2023-07-29T03:33:22;5.13;;;3.58;;
79361;SDS011;68830;47.566;19.012;2023-07-29T03:36:26;4.63;;;3.22;;
79361;SDS011;68830;47.566;19.012;2023-07-29T03:39:28;10.23;;;4.90;;
79361;SDS011;68830;47.566;19.012;2023-07-29T03:42:31;6.82;;;4.65;;
79361;SDS011;68830;47.566;19.012;2023-07-29T03:45:34;6.75;;;4.15;;
79361;SDS011;68830;47.566;19.012;2023-07-29T03:48:37;5.38;;;3.92;;
79361;SDS011;68830;47.566;19.012;2023-07-29T03:51:39;6.80;;;4.50;;
79361;SDS011;68830;47.566;19.012;2023-07-29T03:54:41;7.68;;;4.60;;
79361;SDS011;68830;47.566;19.012;2023-07-29T03:57:45;6.10;;;3.92;;
79361;SDS011;68830;47.566;19.012;2023-07-29T04:00:47;6.68;;;4.50;;
79361;SDS011;68830;47.566;19.012;2023-07-29T04:03:49;5.05;;;4.00;;
79361;SDS011;68830;47.566;19.012;2023-07-29T04:06:53;7.05;;;4.60;;
79361;SDS011;68830;47.566;19.012;2023-07-29T04:09:55;4.85;;;4.35;;
79361;SDS011;68830;47.566;19.012;2023-07-29T04:12:59;8.30;;;4.78;;
79361;SDS011;68830;47.566;19.012;2023-07-29T04:16:01;4.47;;;3.60;;
79361;SDS011;68830;47.566;19.012;2023-07-29T04:19:04;8.45;;;4.03;;
79361;SDS011;68830;47.566;19.012;2023-07-29T04:22:06;5.65;;;4.25;;
79361;SDS011;68830;47.566;19.012;2023-07-29T04:25:08;6.30;;;4.13;;
79361;SDS011;68830;47.566;19.012;2023-07-29T04:28:11;5.13;;;4.00;;
79361;SDS011;68830;47.566;19.012;2023-07-29T04:31:13;8.82;;;4.70;;
79361;SDS011;68830;47.566;19.012;2023-07-29T04:34:16;6.90;;;5.85;;
79361;SDS011;68830;47.566;19.012;2023-07-29T04:37:18;9.43;;;4.88;;
79361;SDS011;68830;47.566;19.012;2023-07-29T04:40:20;9.70;;;5.38;;
79361;SDS011;68830;47.566;19.012;2023-07-29T04:43:27;7.53;;;4.78;;
79361;SDS011;68830;47.566;19.012;2023-07-29T04:46:29;7.05;;;5.47;;
79361;SDS011;68830;47.566;19.012;2023-07-29T04:49:31;6.30;;;4.50;;
79361;SDS011;68830;47.566;19.012;2023-07-29T04:52:33;5.25;;;4.75;;
79361;SDS011;68830;47.566;19.012;2023-07-29T04:55:36;7.45;;;4.82;;
79361;SDS011;68830;47.566;19.012;2023-07-29T04:58:39;8.52;;;4.53;;
79361;SDS011;68830;47.566;19.012;2023-07-29T05:01:41;4.60;;;4.00;;
79361;SDS011;68830;47.566;19.012;2023-07-29T05:04:44;6.22;;;5.25;;
79361;SDS011;68830;47.566;19.012;2023-07-29T05:07:47;10.15;;;5.03;;
79361;SDS011;68830;47.566;19.012;2023-07-29T05:10:49;7.35;;;4.07;;
79361;SDS011;68830;47.566;19.012;2023-07-29T05:13:53;8.32;;;4.90;;
79361;SDS011;68830;47.566;19.012;2023-07-29T05:16:55;4.43;;;3.92;;
79361;SDS011;68830;47.566;19.012;2023-07-29T05:19:57;4.05;;;3.63;;
79361;SDS011;68830;47.566;19.012;2023-07-29T05:22:59;5.45;;;4.03;;
79361;SDS011;68830;47.566;19.012;2023-07-29T05:26:01;4.88;;;4.30;;
79361;SDS011;68830;47.566;19.012;2023-07-29T05:29:05;4.85;;;4.28;;
79361;SDS011;68830;47.566;19.012;2023-07-29T05:32:07;6.15;;;3.55;;
79361;SDS011;68830;47.566;19.012;2023-07-29T05:35:09;4.90;;;4.15;;
79361;SDS011;68830;47.566;19.012;2023-07-29T05:38:11;5.68;;;4.05;;
79361;SDS011;68830;47.566;19.012;2023-07-29T05:41:13;6.22;;;4.22;;
79361;SDS011;68830;47.566;19.012;2023-07-29T05:44:17;6.05;;;3.97;;
79361;SDS011;68830;47.566;19.012;2023-07-29T05:47:19;6.32;;;4.88;;
79361;SDS011;68830;47.566;19.012;2023-07-29T05:50:21;6.78;;;4.75;;
79361;SDS011;68830;47.566;19.012;2023-07-29T05:53:23;5.55;;;4.00;;
79361;SDS011;68830;47.566;19.012;2023-07-29T05:56:25;11.25;;;4.70;;
79361;SDS011;68830;47.566;19.012;2023-07-29T05:59:28;5.50;;;3.92;;
79361;SDS011;68830;47.566;19.012;2023-07-29T06:02:30;6.30;;;3.90;;
79361;SDS011;68830;47.566;19.012;2023-07-29T06:05:32;9.85;;;4.07;;
79361;SDS011;68830;47.566;19.012;2023-07-29T06:08:34;6.13;;;3.95;;
79361;SDS011;68830;47.566;19.012;2023-07-29T06:11:36;5.40;;;4.10;;
79361;SDS011;68830;47.566;19.012;2023-07-29T06:14:40;5.15;;;4.10;;
79361;SDS011;68830;47.566;19.012;2023-07-29T06:17:42;6.28;;;4.57;;
79361;SDS011;68830;47.566;19.012;2023-07-29T06:20:44;5.78;;;4.50;;
79361;SDS011;68830;47.566;19.012;2023-07-29T06:23:47;5.28;;;4.05;;
79361;SDS011;68830;47.566;19.012;2023-07-29T06:26:49;5.32;;;4.35;;
79361;SDS011;68830;47.566;19.012;2023-07-29T06:29:52;6.85;;;4.60;;
79361;SDS011;68830;47.566;19.012;2023-07-29T06:32:55;6.22;;;4.65;;
79361;SDS011;68830;47.566;19.012;2023-07-29T06:35:57;5.65;;;4.97;;
79361;SDS011;68830;47.566;19.012;2023-07-29T06:38:59;13.93;;;4.93;;
79361;SDS011;68830;47.566;19.012;2023-07-29T06:42:01;6.30;;;4.47;;
79361;SDS011;68830;47.566;19.012;2023-07-29T06:45:05;5.65;;;4.05;;
79361;SDS011;68830;47.566;19.012;2023-07-29T06:48:08;7.32;;;4.47;;
79361;SDS011;68830;47.566;19.012;2023-07-29T06:51:10;4.85;;;3.60;;
79361;SDS011;68830;47.566;19.012;2023-07-29T06:54:15;4.90;;;3.35;;
79361;SDS011;68830;47.566;19.012;2023-07-29T06:57:17;8.02;;;3.75;;
79361;SDS011;68830;47.566;19.012;2023-07-29T07:00:21;5.65;;;3.40;;
79361;SDS011;68830;47.566;19.012;2023-07-29T07:03:23;5.40;;;4.15;;
79361;SDS011;68830;47.566;19.012;2023-07-29T07:06:27;4.93;;;4.22;;
79361;SDS011;68830;47.566;19.012;2023-07-29T07:09:51;5.07;;;4.63;;
79361;SDS011;68830;47.566;19.012;2023-07-29T07:12:55;4.70;;;4.20;;
79361;SDS011;68830;47.566;19.012;2023-07-29T07:16:10;5.22;;;4.35;;
79361;SDS011;68830;47.566;19.012;2023-07-29T07:19:12;6.10;;;4.40;;
79361;SDS011;68830;47.566;19.012;2023-07-29T07:22:14;5.03;;;4.22;;
79361;SDS011;68830;47.566;19.012;2023-07-29T07:25:16;5.57;;;3.63;;
79361;SDS011;68830;47.566;19.012;2023-07-29T07:28:18;5.10;;;4.25;;
79361;SDS011;68830;47.566;19.012;2023-07-29T07:31:21;5.78;;;4.25;;
79361;SDS011;68830;47.566;19.012;2023-07-29T07:34:24;5.38;;;3.92;;
79361;SDS011;68830;47.566;19.012;2023-07-29T07:37:26;5.95;;;4.05;;
79361;SDS011;68830;47.566;19.012;2023-07-29T07:40:28;5.57;;;3.63;;
79361;SDS011;68830;47.566;19.012;2023-07-29T07:43:30;4.88;;;3.80;;
79361;SDS011;68830;47.566;19.012;2023-07-29T07:46:33;6.18;;;3.42;;
79361;SDS011;68830;47.566;19.012;2023-07-29T07:49:36;4.28;;;3.88;;
79361;SDS011;68830;47.566;19.012;2023-07-29T07:52:38;4.75;;;3.55;;
79361;SDS011;68830;47.566;19.012;2023-07-29T07:55:40;4.18;;;3.42;;
79361;SDS011;68830;47.566;19.012;2023-07-29T07:58:42;5.25;;;3.05;;
79361;SDS011;68830;47.566;19.012;2023-07-29T08:01:45;3.85;;;3.05;;
79361;SDS011;68830;47.566;19.012;2023-07-29T08:04:48;6.72;;;3.30;;
79361;SDS011;68830;47.566;19.012;2023-07-29T08:07:50;3.45;;;3.13;;
79361;SDS011;68830;47.566;19.012;2023-07-29T08:10:52;4.60;;;3.20;;
79361;SDS011;68830;47.566;19.012;2023-07-29T08:13:54;3.40;;;3.10;;
79361;SDS011;68830;47.566;19.012;2023-07-29T08:16:58;3.10;;;2.70;;
79361;SDS011;68830;47.566;19.012;2023-07-29T08:20:00;3.88;;;3.20;;
79361;SDS011;68830;47.566;19.012;2023-07-29T08:23:02;3.67;;;3.38;;
79361;SDS011;68830;47.566;19.012;2023-07-29T08:26:05;16.63;;;9.63;;
79361;SDS011;68830;47.566;19.012;2023-07-29T08:29:09;6.93;;;4.55;;
79361;SDS011;68830;47.566;19.012;2023-07-29T08:32:12;3.30;;;2.50;;
79361;SDS011;68830;47.566;19.012;2023-07-29T08:35:14;4.57;;;2.97;;
79361;SDS011;68830;47.566;19.012;2023-07-29T08:38:16;4.47;;;2.83;;
79361;SDS011;68830;47.566;19.012;2023-07-29T08:41:19;3.25;;;2.95;;
79361;SDS011;68830;47.566;19.012;2023-07-29T08:44:26;3.03;;;2.35;;
79361;SDS011;68830;47.566;19.012;2023-07-29T08:47:34;2.75;;;2.40;;
79361;SDS011;68830;47.566;19.012;2023-07-29T08:50:36;2.53;;;2.33;;
79361;SDS011;68830;47.566;19.012;2023-07-29T08:53:39;2.80;;;2.30;;
79361;SDS011;68830;47.566;19.012;2023-07-29T08:56:41;2.60;;;2.15;;
79361;SDS011;68830;47.566;19.012;2023-07-29T08:59:45;2.58;;;1.98;;
79361;SDS011;68830;47.566;19.012;2023-07-29T09:02:48;4.53;;;2.25;;
79361;SDS011;68830;47.566;19.012;2023-07-29T09:05:51;2.47;;;2.22;;
79361;SDS011;68830;47.566;19.012;2023-07-29T09:08:54;3.17;;;2.65;;
79361;SDS011;68830;47.566;19.012;2023-07-29T09:11:58;6.78;;;2.60;;
79361;SDS011;68830;47.566;19.012;2023-07-29T09:15:00;2.58;;;2.35;;
79361;SDS011;68830;47.566;19.012;2023-07-29T09:18:10;2.50;;;2.28;;
79361;SDS011;68830;47.566;19.012;2023-07-29T09:21:16;3.00;;;2.53;;
79361;SDS011;68830;47.566;19.012;2023-07-29T09:24:18;3.42;;;2.38;;
79361;SDS011;68830;47.566;19.012;2023-07-29T09:27:23;2.92;;;2.63;;
79361;SDS011;68830;47.566;19.012;2023-07-29T09:30:26;3.08;;;2.78;;
79361;SDS011;68830;47.566;19.012;2023-07-29T09:33:32;4.55;;;2.80;;
79361;SDS011;68830;47.566;19.012;2023-07-29T09:36:37;3.00;;;2.70;;
79361;SDS011;68830;47.566;19.012;2023-07-29T09:39:39;9.15;;;2.90;;
79361;SDS011;68830;47.566;19.012;2023-07-29T09:42:49;2.97;;;2.45;;
79361;SDS011;68830;47.566;19.012;2023-07-29T09:45:52;3.42;;;2.60;;
79361;SDS011;68830;47.566;19.012;2023-07-29T09:48:55;5.00;;;2.60;;
79361;SDS011;68830;47.566;19.012;2023-07-29T09:51:58;2.88;;;2.38;;
79361;SDS011;68830;47.566;19.012;2023-07-29T09:55:03;1.95;;;1.75;;
79361;SDS011;68830;47.566;19.012;2023-07-29T09:58:07;3.17;;;2.42;;
79361;SDS011;68830;47.566;19.012;2023-07-29T10:01:09;2.55;;;2.20;;
79361;SDS011;68830;47.566;19.012;2023-07-29T10:04:13;2.50;;;2.08;;
79361;SDS011;68830;47.566;19.012;2023-07-29T10:07:16;2.72;;;2.10;;
79361;SDS011;68830;47.566;19.012;2023-07-29T10:10:19;2.55;;;2.10;;
79361;SDS011;68830;47.566;19.012;2023-07-29T10:13:22;2.58;;;1.90;;
79361;SDS011;68830;47.566;19.012;2023-07-29T10:16:27;2.85;;;2.53;;
79361;SDS011;68830;47.566;19.012;2023-07-29T10:19:30;2.40;;;2.20;;
79361;SDS011;68830;47.566;19.012;2023-07-29T10:22:34;2.38;;;2.13;;
79361;SDS011;68830;47.566;19.012;2023-07-29T10:25:42;2.60;;;2.17;;
79361;SDS011;68830;47.566;19.012;2023-07-29T10:28:48;3.83;;;2.05;;
79361;SDS011;68830;47.566;19.012;2023-07-29T10:31:54;3.03;;;2.38;;
79361;SDS011;68830;47.566;19.012;2023-07-29T10:35:00;2.35;;;2.15;;
79361;SDS011;68830;47.566;19.012;2023-07-29T10:38:02;2.47;;;2.10;;
79361;SDS011;68830;47.566;19.012;2023-07-29T10:41:08;2.58;;;2.30;;
79361;SDS011;68830;47.566;19.012;2023-07-29T10:47:47;4.47;;;2.25;;
79361;SDS011;68830;47.566;19.012;2023-07-29T10:50:51;3.08;;;2.00;;
79361;SDS011;68830;47.566;19.012;2023-07-29T10:54:27;3.47;;;3.03;;
79361;SDS011;68830;47.566;19.012;2023-07-29T10:57:32;4.38;;;2.63;;
79361;SDS011;68830;47.566;19.012;2023-07-29T11:00:35;10.73;;;9.57;;
79361;SDS011;68830;47.566;19.012;2023-07-29T11:03:37;10.18;;;4.60;;
79361;SDS011;68830;47.566;19.012;2023-07-29T11:10:16;4.15;;;2.20;;
79361;SDS011;68830;47.566;19.012;2023-07-29T11:13:19;4.10;;;2.92;;
79361;SDS011;68830;47.566;19.012;2023-07-29T11:16:21;2.55;;;2.22;;
79361;SDS011;68830;47.566;19.012;2023-07-29T11:19:24;2.78;;;2.53;;
79361;SDS011;68830;47.566;19.012;2023-07-29T11:22:26;3.90;;;2.22;;
79361;SDS011;68830;47.566;19.012;2023-07-29T11:25:30;2.42;;;2.22;;
79361;SDS011;68830;47.566;19.012;2023-07-29T11:28:37;2.50;;;2.30;;
79361;SDS011;68830;47.566;19.012;2023-07-29T11:31:40;3.78;;;2.30;;
79361;SDS011;68830;47.566;19.012;2023-07-29T11:34:42;2.80;;;2.50;;
79361;SDS011;68830;47.566;19.012;2023-07-29T11:37:45;2.58;;;2.38;;
79361;SDS011;68830;47.566;19.012;2023-07-29T11:40:57;2.70;;;2.50;;
79361;SDS011;68830;47.566;19.012;2023-07-29T11:44:00;3.63;;;2.67;;
79361;SDS011;68830;47.566;19.012;2023-07-29T11:47:05;3.00;;;2.28;;
79361;SDS011;68830;47.566;19.012;2023-07-29T11:50:08;2.47;;;2.17;;
79361;SDS011;68830;47.566;19.012;2023-07-29T11:53:11;2.50;;;2.28;;
79361;SDS011;68830;47.566;19.012;2023-07-29T11:56:18;4.05;;;2.78;;
79361;SDS011;68830;47.566;19.012;2023-07-29T11:59:21;2.88;;;2.58;;
79361;SDS011;68830;47.566;19.012;2023-07-29T12:02:23;2.42;;;2.20;;
79361;SDS011;68830;47.566;19.012;2023-07-29T12:05:27;2.90;;;2.10;;
79361;SDS011;68830;47.566;19.012;2023-07-29T12:08:29;3.97;;;2.60;;
79361;SDS011;68830;47.566;19.012;2023-07-29T12:11:33;4.03;;;2.17;;
79361;SDS011;68830;47.566;19.012;2023-07-29T12:14:35;2.80;;;2.20;;
79361;SDS011;68830;47.566;19.012;2023-07-29T12:17:39;2.95;;;2.20;;
79361;SDS011;68830;47.566;19.012;2023-07-29T12:20:41;2.83;;;2.40;;
79361;SDS011;68830;47.566;19.012;2023-07-29T12:23:43;2.78;;;2.47;;
79361;SDS011;68830;47.566;19.012;2023-07-29T12:26:47;2.40;;;2.20;;
79361;SDS011;68830;47.566;19.012;2023-07-29T12:29:49;2.58;;;2.35;;
79361;SDS011;68830;47.566;19.012;2023-07-29T12:32:53;3.90;;;2.80;;
79361;SDS011;68830;47.566;19.012;2023-07-29T12:35:55;3.67;;;2.47;;
79361;SDS011;68830;47.566;19.012;2023-07-29T12:38:58;3.40;;;2.58;;
79361;SDS011;68830;47.566;19.012;2023-07-29T12:42:02;4.00;;;2.20;;
79361;SDS011;68830;47.566;19.012;2023-07-29T12:48:07;3.55;;;2.05;;
79361;SDS011;68830;47.566;19.012;2023-07-29T12:51:10;3.45;;;3.00;;
79361;SDS011;68830;47.566;19.012;2023-07-29T12:54:12;3.05;;;2.47;;
79361;SDS011;68830;47.566;19.012;2023-07-29T12:57:15;3.92;;;2.58;;
79361;SDS011;68830;47.566;19.012;2023-07-29T13:00:17;2.88;;;2.50;;
79361;SDS011;68830;47.566;19.012;2023-07-29T13:03:19;3.13;;;2.35;;
79361;SDS011;68830;47.566;19.012;2023-07-29T13:06:21;3.08;;;2.55;;
79361;SDS011;68830;47.566;19.012;2023-07-29T13:09:23;2.70;;;2.35;;
79361;SDS011;68830;47.566;19.012;2023-07-29T13:12:27;3.45;;;2.25;;
79361;SDS011;68830;47.566;19.012;2023-07-29T13:15:29;3.90;;;2.83;;
79361;SDS011;68830;47.566;19.012;2023-07-29T13:18:31;3.15;;;2.78;;
79361;SDS011;68830;47.566;19.012;2023-07-29T13:21:33;3.15;;;2.63;;
79361;SDS011;68830;47.566;19.012;2023-07-29T13:24:35;4.78;;;2.67;;
79361;SDS011;68830;47.566;19.012;2023-07-29T13:27:38;3.10;;;2.80;;
79361;SDS011;68830;47.566;19.012;2023-07-29T13:30:40;2.55;;;2.33;;
79361;SDS011;68830;47.566;19.012;2023-07-29T13:33:42;3.17;;;2.63;;
79361;SDS011;68830;47.566;19.012;2023-07-29T13:36:44;3.58;;;2.67;;
79361;SDS011;68830;47.566;19.012;2023-07-29T13:39:46;3.33;;;2.30;;
79361;SDS011;68830;47.566;19.012;2023-07-29T13:42:49;3.22;;;2.05;;
79361;SDS011;68830;47.566;19.012;2023-07-29T13:45:51;4.63;;;3.10;;
79361;SDS011;68830;47.566;19.012;2023-07-29T13:48:53;3.08;;;2.60;;
79361;SDS011;68830;47.566;19.012;2023-07-29T13:51:55;3.13;;;2.47;;
79361;SDS011;68830;47.566;19.012;2023-07-29T13:54:57;3.50;;;2.72;;
79361;SDS011;68830;47.566;19.012;2023-07-29T13:58:01;2.92;;;2.53;;
79361;SDS011;68830;47.566;19.012;2023-07-29T14:01:03;2.78;;;2.40;;
79361;SDS011;68830;47.566;19.012;2023-07-29T14:04:05;3.22;;;1.92;;
79361;SDS011;68830;47.566;19.012;2023-07-29T14:07:07;2.55;;;1.85;;
79361;SDS011;68830;47.566;19.012;2023-07-29T14:10:09;3.42;;;2.20;;
79361;SDS011;68830;47.566;19.012;2023-07-29T14:13:12;3.30;;;2.45;;
79361;SDS011;68830;47.566;19.012;2023-07-29T14:16:14;2.83;;;2.30;;
79361;SDS011;68830;47.566;19.012;2023-07-29T14:19:16;4.35;;;2.60;;
79361;SDS011;68830;47.566;19.012;2023-07-29T14:22:19;3.00;;;2.50;;
79361;SDS011;68830;47.566;19.012;2023-07-29T14:25:21;4.22;;;2.58;;
79361;SDS011;68830;47.566;19.012;2023-07-29T14:28:25;3.22;;;2.53;;
79361;SDS011;68830;47.566;19.012;2023-07-29T14:31:29;3.08;;;2.70;;
79361;SDS011;68830;47.566;19.012;2023-07-29T14:34:31;4.50;;;2.38;;
79361;SDS011;68830;47.566;19.012;2023-07-29T14:37:33;3.88;;;2.65;;
79361;SDS011;68830;47.566;19.012;2023-07-29T14:40:35;4.82;;;2.35;;
79361;SDS011;68830;47.566;19.012;2023-07-29T14:43:38;3.90;;;2.33;;
79361;SDS011;68830;47.566;19.012;2023-07-29T14:46:40;4.75;;;2.50;;
79361;SDS011;68830;47.566;19.012;2023-07-29T14:49:43;3.35;;;2.75;;
79361;SDS011;68830;47.566;19.012;2023-07-29T14:52:45;3.25;;;2.95;;
79361;SDS011;68830;47.566;19.012;2023-07-29T14:55:47;3.45;;;2.53;;
79361;SDS011;68830;47.566;19.012;2023-07-29T14:58:51;3.15;;;2.60;;
79361;SDS011;68830;47.566;19.012;2023-07-29T15:01:53;4.97;;;2.67;;
79361;SDS011;68830;47.566;19.012;2023-07-29T15:04:55;3.25;;;2.80;;
79361;SDS011;68830;47.566;19.012;2023-07-29T15:07:57;3.50;;;2.50;;
79361;SDS011;68830;47.566;19.012;2023-07-29T15:10:59;4.10;;;2.78;;
79361;SDS011;68830;47.566;19.012;2023-07-29T15:14:02;2.92;;;2.47;;
79361;SDS011;68830;47.566;19.012;2023-07-29T15:17:07;2.72;;;2.38;;
79361;SDS011;68830;47.566;19.012;2023-07-29T15:20:09;3.78;;;2.47;;
79361;SDS011;68830;47.566;19.012;2023-07-29T15:23:12;2.65;;;2.45;;
79361;SDS011;68830;47.566;19.012;2023-07-29T15:26:14;2.67;;;2.47;;
79361;SDS011;68830;47.566;19.012;2023-07-29T15:29:17;3.03;;;1.95;;
79361;SDS011;68830;47.566;19.012;2023-07-29T15:32:19;3.65;;;2.70;;
79361;SDS011;68830;47.566;19.012;2023-07-29T15:35:22;2.30;;;1.95;;
79361;SDS011;68830;47.566;19.012;2023-07-29T15:38:24;3.20;;;2.47;;
79361;SDS011;68830;47.566;19.012;2023-07-29T15:41:26;3.42;;;2.53;;
79361;SDS011;68830;47.566;19.012;2023-07-29T15:44:29;2.58;;;2.30;;
79361;SDS011;68830;47.566;19.012;2023-07-29T15:47:31;4.40;;;2.90;;
79361;SDS011;68830;47.566;19.012;2023-07-29T15:50:33;3.42;;;2.83;;
79361;SDS011;68830;47.566;19.012;2023-07-29T15:53:35;3.92;;;2.78;;
79361;SDS011;68830;47.566;19.012;2023-07-29T15:56:37;3.22;;;2.80;;
79361;SDS011;68830;47.566;19.012;2023-07-29T15:59:42;3.03;;;2.70;;
79361;SDS011;68830;47.566;19.012;2023-07-29T16:02:44;3.67;;;2.78;;
79361;SDS011;68830;47.566;19.012;2023-07-29T16:05:46;3.90;;;3.50;;
79361;SDS011;68830;47.566;19.012;2023-07-29T16:08:48;4.50;;;3.17;;
79361;SDS011;68830;47.566;19.012;2023-07-29T16:11:50;4.43;;;3.00;;
79361;SDS011;68830;47.566;19.012;2023-07-29T16:14:54;5.63;;;4.13;;
79361;SDS011;68830;47.566;19.012;2023-07-29T16:17:57;4.22;;;3.35;;
79361;SDS011;68830;47.566;19.012;2023-07-29T16:21:01;5.05;;;3.28;;
79361;SDS011;68830;47.566;19.012;2023-07-29T16:24:03;3.17;;;2.88;;
79361;SDS011;68830;47.566;19.012;2023-07-29T16:27:05;3.38;;;3.00;;
79361;SDS011;68830;47.566;19.012;2023-07-29T16:30:09;4.03;;;3.25;;
79361;SDS011;68830;47.566;19.012;2023-07-29T16:33:11;4.03;;;3.28;;
79361;SDS011;68830;47.566;19.012;2023-07-29T16:36:13;3.90;;;2.90;;
79361;SDS011;68830;47.566;19.012;2023-07-29T16:39:15;3.47;;;3.15;;
79361;SDS011;68830;47.566;19.012;2023-07-29T16:42:17;4.25;;;3.35;;
79361;SDS011;68830;47.566;19.012;2023-07-29T16:45:21;4.20;;;3.53;;
79361;SDS011;68830;47.566;19.012;2023-07-29T16:48:23;4.15;;;3.75;;
79361;SDS011;68830;47.566;19.012;2023-07-29T16:51:25;5.25;;;3.90;;
79361;SDS011;68830;47.566;19.012;2023-07-29T16:54:27;6.68;;;3.42;;
79361;SDS011;68830;47.566;19.012;2023-07-29T16:57:29;4.72;;;3.90;;
79361;SDS011;68830;47.566;19.012;2023-07-29T17:00:33;7.05;;;4.50;;
79361;SDS011;68830;47.566;19.012;2023-07-29T17:03:35;5.10;;;4.40;;
79361;SDS011;68830;47.566;19.012;2023-07-29T17:06:37;5.10;;;3.55;;
79361;SDS011;68830;47.566;19.012;2023-07-29T17:09:40;3.80;;;3.40;;
79361;SDS011;68830;47.566;19.012;2023-07-29T17:12:42;5.45;;;3.10;;
79361;SDS011;68830;47.566;19.012;2023-07-29T17:15:45;4.30;;;3.03;;
79361;SDS011;68830;47.566;19.012;2023-07-29T17:18:49;3.90;;;3.50;;
79361;SDS011;68830;47.566;19.012;2023-07-29T17:21:51;5.63;;;3.28;;
79361;SDS011;68830;47.566;19.012;2023-07-29T17:24:56;7.13;;;3.80;;
79361;SDS011;68830;47.566;19.012;2023-07-29T17:27:59;5.85;;;3.83;;
79361;SDS011;68830;47.566;19.012;2023-07-29T17:31:03;5.93;;;3.05;;
79361;SDS011;68830;47.566;19.012;2023-07-29T17:34:05;3.67;;;3.13;;
79361;SDS011;68830;47.566;19.012;2023-07-29T17:37:09;4.63;;;2.88;;
79361;SDS011;68830;47.566;19.012;2023-07-29T17:40:14;6.03;;;3.13;;
79361;SDS011;68830;47.566;19.012;2023-07-29T17:43:16;4.35;;;2.90;;
79361;SDS011;68830;47.566;19.012;2023-07-29T17:46:20;2.70;;;2.35;;
79361;SDS011;68830;47.566;19.012;2023-07-29T17:49:22;4.75;;;2.72;;
79361;SDS011;68830;47.566;19.012;2023-07-29T17:52:24;2.92;;;2.35;;
79361;SDS011;68830;47.566;19.012;2023-07-29T17:55:26;4.97;;;2.65;;
79361;SDS011;68830;47.566;19.012;2023-07-29T17:58:28;3.08;;;2.38;;
79361;SDS011;68830;47.566;19.012;2023-07-29T18:01:32;3.65;;;2.58;;
79361;SDS011;68830;47.566;19.012;2023-07-29T18:04:34;6.63;;;2.67;;
79361;SDS011;68830;47.566;19.012;2023-07-29T18:07:36;4.20;;;3.47;;
79361;SDS011;68830;47.566;19.012;2023-07-29T18:10:39;3.33;;;2.83;;
79361;SDS011;68830;47.566;19.012;2023-07-29T18:13:41;2.95;;;2.63;;
79361;SDS011;68830;47.566;19.012;2023-07-29T18:16:44;5.63;;;3.00;;